sensor_id;sensor_type;location;lat;lon;timestamp;pressure;altitude;pressure_sealevel;temperature;humidity
39681;BME280;26327;42.550;23.120;2023-03-23T07:54:30;92868.13;;;19.00;61.85
39681;BME280;26327;42.550;23.120;2023-03-23T07:56:56;92816.41;;;19.74;59.43
39681;BME280;26327;42.550;23.120;2023-03-23T07:59:21;92811.03;;;20.82;56.15
39681;BME280;26327;42.550;23.120;2023-03-23T08:01:47;92876.75;;;21.77;53.55
39681;BME280;26327;42.550;23.120;2023-03-23T08:04:12;92857.03;;;22.39;52.01
39681;BME280;26327;42.550;23.120;2023-03-23T08:06:38;92815.66;;;21.52;52.32
39681;BME280;26327;42.550;23.120;2023-03-23T08:09:05;92813.72;;;22.55;49.65
39681;BME280;26327;42.550;23.120;2023-03-23T08:11:36;92859.69;;;23.13;49.44
39681;BME280;26327;42.550;23.120;2023-03-23T08:14:02;92760.72;;;23.49;45.67
39681;BME280;26327;42.550;23.120;2023-03-23T08:16:27;92869.09;;;23.83;43.98
39681;BME280;26327;42.550;23.120;2023-03-23T08:18:53;92797.00;;;24.77;40.62
39681;BME280;26327;42.550;23.120;2023-03-23T08:21:18;92828.13;;;25.77;37.29
39681;BME280;26327;42.550;23.120;2023-03-23T08:23:44;92854.47;;;26.33;35.48
39681;BME280;26327;42.550;23.120;2023-03-23T08:26:10;92873.16;;;26.23;35.70
39681;BME280;26327;42.550;23.120;2023-03-23T08:28:36;92862.97;;;27.37;33.08
39681;BME280;26327;42.550;23.120;2023-03-23T08:31:07;92864.28;;;27.40;33.23
39681;BME280;26327;42.550;23.120;2023-03-23T08:33:33;92818.66;;;26.83;33.10
39681;BME280;26327;42.550;23.120;2023-03-23T08:36:00;92866.47;;;27.09;32.44
39681;BME280;26327;42.550;23.120;2023-03-23T08:38:26;92853.72;;;25.63;33.85
39681;BME280;26327;42.550;23.120;2023-03-23T08:41:00;92854.66;;;24.46;36.06
39681;BME280;26327;42.550;23.120;2023-03-23T08:43:27;92855.19;;;24.38;37.00
39681;BME280;26327;42.550;23.120;2023-03-23T08:45:53;92832.06;;;24.79;35.49
39681;BME280;26327;42.550;23.120;2023-03-23T08:48:19;92757.59;;;25.80;33.19
39681;BME280;26327;42.550;23.120;2023-03-23T08:50:45;92848.16;;;26.97;31.43
39681;BME280;26327;42.550;23.120;2023-03-23T08:53:10;92831.31;;;27.78;29.36
39681;BME280;26327;42.550;23.120;2023-03-23T08:55:36;92842.22;;;27.58;29.61
39681;BME280;26327;42.550;23.120;2023-03-23T08:58:02;92789.00;;;27.43;29.93
39681;BME280;26327;42.550;23.120;2023-03-23T09:00:29;92802.88;;;28.30;27.60
39681;BME280;26327;42.550;23.120;2023-03-23T09:02:54;92825.63;;;28.98;27.02
39681;BME280;26327;42.550;23.120;2023-03-23T09:05:23;92828.88;;;29.41;27.59
39681;BME280;26327;42.550;23.120;2023-03-23T09:07:54;92847.84;;;29.99;25.90
39681;BME280;26327;42.550;23.120;2023-03-23T09:10:20;92800.09;;;29.19;24.98
39681;BME280;26327;42.550;23.120;2023-03-23T09:12:46;92830.28;;;30.07;25.13
39681;BME280;26327;42.550;23.120;2023-03-23T09:15:14;92783.34;;;27.73;25.44
39681;BME280;26327;42.550;23.120;2023-03-23T09:17:44;92823.59;;;29.22;24.80
39681;BME280;26327;42.550;23.120;2023-03-23T09:20:12;92775.06;;;27.03;26.75
39681;BME280;26327;42.550;23.120;2023-03-23T09:22:43;92828.00;;;28.29;26.54
39681;BME280;26327;42.550;23.120;2023-03-23T09:25:11;92817.88;;;29.70;24.57
39681;BME280;26327;42.550;23.120;2023-03-23T09:27:37;92828.00;;;28.99;25.94
39681;BME280;26327;42.550;23.120;2023-03-23T09:30:10;92773.53;;;27.45;25.21
39681;BME280;26327;42.550;23.120;2023-03-23T09:32:37;92773.03;;;28.93;24.25
39681;BME280;26327;42.550;23.120;2023-03-23T09:35:04;92782.16;;;29.20;23.93
39681;BME280;26327;42.550;23.120;2023-03-23T09:37:33;92778.31;;;29.81;23.24
39681;BME280;26327;42.550;23.120;2023-03-23T09:40:00;92745.88;;;29.00;23.89
39681;BME280;26327;42.550;23.120;2023-03-23T09:45:39;92770.59;;;28.08;24.99
39681;BME280;26327;42.550;23.120;2023-03-23T09:50:55;92802.22;;;29.63;24.05
39681;BME280;26327;42.550;23.120;2023-03-23T09:53:29;92807.13;;;29.29;24.07
39681;BME280;26327;42.550;23.120;2023-03-23T09:56:01;92714.78;;;29.18;22.34
39681;BME280;26327;42.550;23.120;2023-03-23T09:58:32;92768.97;;;29.78;22.79
39681;BME280;26327;42.550;23.120;2023-03-23T10:01:06;92711.19;;;30.35;21.91
39681;BME280;26327;42.550;23.120;2023-03-23T10:03:43;92745.53;;;29.97;22.72
39681;BME280;26327;42.550;23.120;2023-03-23T10:06:11;92809.66;;;31.33;22.47
39681;BME280;26327;42.550;23.120;2023-03-23T10:08:50;92820.13;;;31.74;21.33
39681;BME280;26327;42.550;23.120;2023-03-23T10:16:58;92780.56;;;31.04;20.83
39681;BME280;26327;42.550;23.120;2023-03-23T10:22:31;92791.03;;;30.61;20.92
39681;BME280;26327;42.550;23.120;2023-03-23T10:25:15;92751.78;;;31.58;20.60
39681;BME280;26327;42.550;23.120;2023-03-23T10:28:09;92810.81;;;30.01;21.70
39681;BME280;26327;42.550;23.120;2023-03-23T10:30:42;92744.03;;;31.56;20.20
39681;BME280;26327;42.550;23.120;2023-03-23T10:36:01;92797.50;;;30.82;21.89
39681;BME280;26327;42.550;23.120;2023-03-23T10:38:41;92757.28;;;30.60;21.70
39681;BME280;26327;42.550;23.120;2023-03-23T10:41:12;92811.06;;;31.30;20.85
39681;BME280;26327;42.550;23.120;2023-03-23T10:43:39;92756.59;;;31.30;19.87
39681;BME280;26327;42.550;23.120;2023-03-23T10:49:17;92799.09;;;31.37;19.96
39681;BME280;26327;42.550;23.120;2023-03-23T10:51:56;92748.56;;;32.13;18.86
39681;BME280;26327;42.550;23.120;2023-03-23T10:54:27;92739.56;;;31.43;19.60
39681;BME280;26327;42.550;23.120;2023-03-23T10:56:57;92787.69;;;32.79;19.00
39681;BME280;26327;42.550;23.120;2023-03-23T10:59:30;92729.44;;;30.11;19.54
39681;BME280;26327;42.550;23.120;2023-03-23T11:02:00;92759.13;;;31.04;20.53
39681;BME280;26327;42.550;23.120;2023-03-23T11:04:29;92773.41;;;31.61;19.94
39681;BME280;26327;42.550;23.120;2023-03-23T11:06:59;92738.66;;;31.56;20.56
39681;BME280;26327;42.550;23.120;2023-03-23T11:09:38;92774.13;;;31.05;20.13
39681;BME280;26327;42.550;23.120;2023-03-23T11:12:04;92781.91;;;31.46;19.78
39681;BME280;26327;42.550;23.120;2023-03-23T11:14:32;92786.00;;;31.75;19.63
39681;BME280;26327;42.550;23.120;2023-03-23T11:17:03;92729.44;;;31.88;18.94
39681;BME280;26327;42.550;23.120;2023-03-23T11:19:36;92775.34;;;32.27;20.14
39681;BME280;26327;42.550;23.120;2023-03-23T11:22:06;92785.34;;;31.38;19.37
39681;BME280;26327;42.550;23.120;2023-03-23T11:24:44;92721.06;;;31.02;19.42
39681;BME280;26327;42.550;23.120;2023-03-23T11:27:11;92715.66;;;29.68;19.72
39681;BME280;26327;42.550;23.120;2023-03-23T11:32:28;92744.34;;;31.63;20.05
39681;BME280;26327;42.550;23.120;2023-03-23T11:34:57;92756.56;;;30.99;19.44
39681;BME280;26327;42.550;23.120;2023-03-23T11:37:57;92768.00;;;32.10;19.07
39681;BME280;26327;42.550;23.120;2023-03-23T11:40:26;92757.69;;;31.07;19.56
39681;BME280;26327;42.550;23.120;2023-03-23T11:48:20;92758.66;;;31.33;19.05
39681;BME280;26327;42.550;23.120;2023-03-23T11:50:58;92757.34;;;30.10;20.06
39681;BME280;26327;42.550;23.120;2023-03-23T11:56:39;92685.44;;;29.26;19.97
39681;BME280;26327;42.550;23.120;2023-03-23T11:59:13;92677.44;;;28.99;21.11
39681;BME280;26327;42.550;23.120;2023-03-23T12:10:26;92744.41;;;31.24;19.77
39681;BME280;26327;42.550;23.120;2023-03-23T12:18:54;92750.09;;;28.41;21.82
39681;BME280;26327;42.550;23.120;2023-03-23T12:25:22;92742.03;;;28.92;21.34
39681;BME280;26327;42.550;23.120;2023-03-23T12:35:05;92676.81;;;29.93;20.92
39681;BME280;26327;42.550;23.120;2023-03-23T12:37:59;92738.72;;;29.91;20.59
39681;BME280;26327;42.550;23.120;2023-03-23T12:54:35;92736.06;;;28.11;21.57
39681;BME280;26327;42.550;23.120;2023-03-23T12:57:16;92663.91;;;27.60;21.38
39681;BME280;26327;42.550;23.120;2023-03-23T13:02:34;92700.09;;;27.05;22.38
39681;BME280;26327;42.550;23.120;2023-03-23T13:05:03;92718.66;;;27.57;22.57
39681;BME280;26327;42.550;23.120;2023-03-23T13:07:35;92657.84;;;26.88;22.48
39681;BME280;26327;42.550;23.120;2023-03-23T13:10:07;92719.13;;;27.41;22.09
39681;BME280;26327;42.550;23.120;2023-03-23T13:12:34;92718.78;;;27.05;22.90
39681;BME280;26327;42.550;23.120;2023-03-23T13:17:47;92592.31;;;24.93;24.82
39681;BME280;26327;42.550;23.120;2023-03-23T13:25:37;92651.69;;;24.68;25.86
39681;BME280;26327;42.550;23.120;2023-03-23T13:28:04;92721.06;;;24.21;27.46
39681;BME280;26327;42.550;23.120;2023-03-23T13:30:30;92692.25;;;22.69;30.54
39681;BME280;26327;42.550;23.120;2023-03-23T13:33:06;92644.88;;;22.20;29.03
39681;BME280;26327;42.550;23.120;2023-03-23T13:35:37;92722.09;;;21.09;31.96
39681;BME280;26327;42.550;23.120;2023-03-23T13:38:33;92716.19;;;20.58;32.10
39681;BME280;26327;42.550;23.120;2023-03-23T13:40:57;92625.06;;;19.45;33.37
39681;BME280;26327;42.550;23.120;2023-03-23T13:43:35;92701.72;;;19.43;34.25
39681;BME280;26327;42.550;23.120;2023-03-23T13:48:46;92718.19;;;19.50;34.11
39681;BME280;26327;42.550;23.120;2023-03-23T14:01:53;92699.06;;;18.98;35.08
39681;BME280;26327;42.550;23.120;2023-03-23T14:04:20;92635.13;;;18.74;34.01
39681;BME280;26327;42.550;23.120;2023-03-23T14:06:48;92633.00;;;18.60;34.72
39681;BME280;26327;42.550;23.120;2023-03-23T14:09:37;92667.56;;;18.63;33.66
39681;BME280;26327;42.550;23.120;2023-03-23T14:12:05;92704.41;;;18.63;35.78
39681;BME280;26327;42.550;23.120;2023-03-23T14:14:44;92638.81;;;17.86;37.71
39681;BME280;26327;42.550;23.120;2023-03-23T14:17:21;92624.19;;;17.90;37.55
39681;BME280;26327;42.550;23.120;2023-03-23T14:19:50;92614.81;;;17.94;37.02
39681;BME280;26327;42.550;23.120;2023-03-23T14:22:24;92688.94;;;18.67;36.50
39681;BME280;26327;42.550;23.120;2023-03-23T14:25:00;92661.75;;;18.26;36.10
39681;BME280;26327;42.550;23.120;2023-03-23T14:27:27;92631.28;;;17.78;35.83
39681;BME280;26327;42.550;23.120;2023-03-23T14:29:59;92692.66;;;18.19;34.94
39681;BME280;26327;42.550;23.120;2023-03-23T14:32:27;92693.44;;;18.19;35.98
39681;BME280;26327;42.550;23.120;2023-03-23T14:34:54;92685.22;;;17.92;37.14
39681;BME280;26327;42.550;23.120;2023-03-23T14:37:20;92709.22;;;17.96;35.76
39681;BME280;26327;42.550;23.120;2023-03-23T14:39:48;92681.22;;;17.78;35.81
39681;BME280;26327;42.550;23.120;2023-03-23T14:42:16;92673.31;;;17.78;36.10
39681;BME280;26327;42.550;23.120;2023-03-23T14:44:44;92651.44;;;17.43;36.83
39681;BME280;26327;42.550;23.120;2023-03-23T14:47:23;92700.88;;;17.87;36.85
39681;BME280;26327;42.550;23.120;2023-03-23T14:49:59;92564.25;;;16.99;36.55
39681;BME280;26327;42.550;23.120;2023-03-23T14:52:27;92665.19;;;17.56;37.91
39681;BME280;26327;42.550;23.120;2023-03-23T14:54:53;92632.47;;;17.41;37.50
39681;BME280;26327;42.550;23.120;2023-03-23T14:57:26;92616.56;;;17.12;38.12
39681;BME280;26327;42.550;23.120;2023-03-23T14:59:52;92597.28;;;16.77;36.72
39681;BME280;26327;42.550;23.120;2023-03-23T15:02:23;92680.91;;;17.45;35.89
39681;BME280;26327;42.550;23.120;2023-03-23T15:04:54;92594.69;;;16.77;38.87
39681;BME280;26327;42.550;23.120;2023-03-23T15:07:25;92627.78;;;16.89;38.77
39681;BME280;26327;42.550;23.120;2023-03-23T15:09:51;92687.41;;;17.42;38.53
39681;BME280;26327;42.550;23.120;2023-03-23T15:12:46;92693.34;;;17.38;36.92
39681;BME280;26327;42.550;23.120;2023-03-23T15:15:28;92674.72;;;17.39;36.44
39681;BME280;26327;42.550;23.120;2023-03-23T15:17:55;92664.22;;;17.39;36.45
39681;BME280;26327;42.550;23.120;2023-03-23T15:20:23;92685.56;;;17.43;37.03
39681;BME280;26327;42.550;23.120;2023-03-23T15:22:49;92649.91;;;17.12;37.54
39681;BME280;26327;42.550;23.120;2023-03-23T15:27:57;92695.44;;;17.06;36.02
39681;BME280;26327;42.550;23.120;2023-03-23T15:32:51;92675.47;;;16.86;38.31
39681;BME280;26327;42.550;23.120;2023-03-23T15:35:22;92683.47;;;16.91;38.55
39681;BME280;26327;42.550;23.120;2023-03-23T15:37:52;92627.56;;;16.43;37.75
39681;BME280;26327;42.550;23.120;2023-03-23T15:40:22;92636.44;;;16.60;37.24
39681;BME280;26327;42.550;23.120;2023-03-23T15:42:49;92617.78;;;16.20;40.21
39681;BME280;26327;42.550;23.120;2023-03-23T15:45:26;92686.91;;;16.55;38.62
39681;BME280;26327;42.550;23.120;2023-03-23T15:47:52;92638.72;;;16.38;38.81
39681;BME280;26327;42.550;23.120;2023-03-23T15:52:53;92717.41;;;16.75;39.39
39681;BME280;26327;42.550;23.120;2023-03-23T15:55:27;92573.66;;;15.62;40.58
39681;BME280;26327;42.550;23.120;2023-03-23T15:57:55;92712.56;;;16.53;40.42
39681;BME280;26327;42.550;23.120;2023-03-23T16:00:24;92641.91;;;15.85;42.85
39681;BME280;26327;42.550;23.120;2023-03-23T16:02:54;92695.75;;;16.43;42.04
39681;BME280;26327;42.550;23.120;2023-03-23T16:05:20;92700.63;;;16.39;42.93
39681;BME280;26327;42.550;23.120;2023-03-23T16:07:45;92703.84;;;16.41;42.57
39681;BME280;26327;42.550;23.120;2023-03-23T16:10:19;92717.38;;;16.38;42.89
39681;BME280;26327;42.550;23.120;2023-03-23T16:12:45;92718.69;;;16.47;42.35
39681;BME280;26327;42.550;23.120;2023-03-23T16:15:11;92684.53;;;16.17;42.91
39681;BME280;26327;42.550;23.120;2023-03-23T16:17:37;92628.19;;;15.40;44.75
39681;BME280;26327;42.550;23.120;2023-03-23T16:20:15;92718.09;;;16.09;44.02
39681;BME280;26327;42.550;23.120;2023-03-23T16:22:40;92702.19;;;16.03;43.67
39681;BME280;26327;42.550;23.120;2023-03-23T16:25:06;92730.88;;;15.98;43.89
39681;BME280;26327;42.550;23.120;2023-03-23T16:27:32;92711.00;;;15.66;46.80
39681;BME280;26327;42.550;23.120;2023-03-23T16:29:57;92642.81;;;14.98;48.37
39681;BME280;26327;42.550;23.120;2023-03-23T16:32:25;92722.91;;;14.47;52.81
39681;BME280;26327;42.550;23.120;2023-03-23T16:34:50;92449.56;;;12.59;53.31
39681;BME280;26327;42.550;23.120;2023-03-23T16:37:16;92721.75;;;14.24;54.29
39681;BME280;26327;42.550;23.120;2023-03-23T16:39:41;92650.94;;;13.80;53.46
39681;BME280;26327;42.550;23.120;2023-03-23T16:42:06;92731.06;;;13.80;53.47
39681;BME280;26327;42.550;23.120;2023-03-23T16:44:32;92662.75;;;12.97;56.14
39681;BME280;26327;42.550;23.120;2023-03-23T16:46:57;92738.91;;;13.60;56.37
39681;BME280;26327;42.550;23.120;2023-03-23T16:49:23;92724.56;;;13.16;57.18
39681;BME280;26327;42.550;23.120;2023-03-23T16:51:48;92666.09;;;12.71;58.63
39681;BME280;26327;42.550;23.120;2023-03-23T16:54:14;92641.50;;;13.00;56.09
39681;BME280;26327;42.550;23.120;2023-03-23T16:56:39;92706.31;;;13.10;57.65
39681;BME280;26327;42.550;23.120;2023-03-23T16:59:04;92687.03;;;12.98;57.69
39681;BME280;26327;42.550;23.120;2023-03-23T17:01:30;92737.09;;;13.54;56.61
39681;BME280;26327;42.550;23.120;2023-03-23T17:03:55;92721.44;;;13.47;56.24
39681;BME280;26327;42.550;23.120;2023-03-23T17:06:21;92743.22;;;13.13;58.19
39681;BME280;26327;42.550;23.120;2023-03-23T17:08:46;92746.78;;;12.38;60.86
39681;BME280;26327;42.550;23.120;2023-03-23T17:11:12;92729.63;;;12.57;61.18
39681;BME280;26327;42.550;23.120;2023-03-23T17:13:37;92731.13;;;11.97;62.05
39681;BME280;26327;42.550;23.120;2023-03-23T17:16:03;92664.50;;;10.55;70.13
39681;BME280;26327;42.550;23.120;2023-03-23T17:18:28;92755.50;;;11.83;67.12
39681;BME280;26327;42.550;23.120;2023-03-23T17:20:54;92734.72;;;11.68;67.56
39681;BME280;26327;42.550;23.120;2023-03-23T17:23:20;92695.56;;;10.84;69.63
39681;BME280;26327;42.550;23.120;2023-03-23T17:25:46;92691.22;;;10.49;71.74
39681;BME280;26327;42.550;23.120;2023-03-23T17:28:12;92772.53;;;10.64;73.08
39681;BME280;26327;42.550;23.120;2023-03-23T17:30:42;92679.47;;;9.72;76.04
39681;BME280;26327;42.550;23.120;2023-03-23T17:33:08;92687.25;;;9.58;76.90
39681;BME280;26327;42.550;23.120;2023-03-23T17:35:34;92781.19;;;9.83;78.88
39681;BME280;26327;42.550;23.120;2023-03-23T17:37:59;92703.56;;;9.29;79.54
39681;BME280;26327;42.550;23.120;2023-03-23T17:40:24;92709.44;;;9.23;79.48
39681;BME280;26327;42.550;23.120;2023-03-23T17:42:50;92781.72;;;9.63;79.47
39681;BME280;26327;42.550;23.120;2023-03-23T17:45:15;92694.44;;;8.95;79.10
39681;BME280;26327;42.550;23.120;2023-03-23T17:47:41;92733.00;;;8.90;80.93
39681;BME280;26327;42.550;23.120;2023-03-23T17:50:07;92782.28;;;9.13;81.49
39681;BME280;26327;42.550;23.120;2023-03-23T17:52:33;92719.13;;;8.29;84.31
39681;BME280;26327;42.550;23.120;2023-03-23T17:54:58;92764.38;;;8.41;85.97
39681;BME280;26327;42.550;23.120;2023-03-23T17:57:24;92789.41;;;8.49;85.35
39681;BME280;26327;42.550;23.120;2023-03-23T17:59:50;92702.34;;;8.17;84.48
39681;BME280;26327;42.550;23.120;2023-03-23T18:02:15;92793.19;;;8.77;84.98
39681;BME280;26327;42.550;23.120;2023-03-23T18:04:43;92791.22;;;8.79;85.39
39681;BME280;26327;42.550;23.120;2023-03-23T18:07:09;92705.91;;;8.16;84.56
39681;BME280;26327;42.550;23.120;2023-03-23T18:09:35;92795.88;;;8.61;84.45
39681;BME280;26327;42.550;23.120;2023-03-23T18:12:00;92827.63;;;8.86;83.63
39681;BME280;26327;42.550;23.120;2023-03-23T18:14:25;92823.13;;;8.80;83.78
39681;BME280;26327;42.550;23.120;2023-03-23T18:16:51;92755.00;;;8.32;84.81
39681;BME280;26327;42.550;23.120;2023-03-23T18:19:17;92805.44;;;8.83;83.97
39681;BME280;26327;42.550;23.120;2023-03-23T18:21:42;92801.34;;;8.66;84.15
39681;BME280;26327;42.550;23.120;2023-03-23T18:24:08;92829.28;;;8.79;83.87
39681;BME280;26327;42.550;23.120;2023-03-23T18:26:34;92811.63;;;8.51;84.81
39681;BME280;26327;42.550;23.120;2023-03-23T18:28:59;92828.75;;;8.44;85.15
39681;BME280;26327;42.550;23.120;2023-03-23T18:31:25;92805.75;;;8.10;86.74
39681;BME280;26327;42.550;23.120;2023-03-23T18:33:51;92833.84;;;8.21;87.62
39681;BME280;26327;42.550;23.120;2023-03-23T18:36:19;92810.81;;;7.79;89.26
39681;BME280;26327;42.550;23.120;2023-03-23T18:38:45;92750.25;;;7.49;88.35
39681;BME280;26327;42.550;23.120;2023-03-23T18:41:11;92827.91;;;7.88;89.29
39681;BME280;26327;42.550;23.120;2023-03-23T18:43:37;92830.06;;;7.61;91.00
39681;BME280;26327;42.550;23.120;2023-03-23T18:46:03;92776.41;;;7.46;89.99
39681;BME280;26327;42.550;23.120;2023-03-23T18:48:29;92832.47;;;7.78;89.87
39681;BME280;26327;42.550;23.120;2023-03-23T18:50:57;92845.25;;;7.80;89.41
39681;BME280;26327;42.550;23.120;2023-03-23T18:53:23;92761.41;;;7.09;90.05
39681;BME280;26327;42.550;23.120;2023-03-23T18:55:49;92828.28;;;7.29;91.15
39681;BME280;26327;42.550;23.120;2023-03-23T18:58:16;92740.09;;;6.67;91.19
39681;BME280;26327;42.550;23.120;2023-03-23T19:00:43;92803.53;;;6.93;93.00
39681;BME280;26327;42.550;23.120;2023-03-23T19:03:09;92844.91;;;7.50;92.30
39681;BME280;26327;42.550;23.120;2023-03-23T19:05:36;92851.53;;;7.77;89.84
39681;BME280;26327;42.550;23.120;2023-03-23T19:08:03;92763.66;;;6.96;90.76
39681;BME280;26327;42.550;23.120;2023-03-23T19:10:30;92846.72;;;7.66;90.37
39681;BME280;26327;42.550;23.120;2023-03-23T19:12:55;92826.66;;;7.52;89.44
39681;BME280;26327;42.550;23.120;2023-03-23T19:15:21;92765.44;;;7.04;89.87
39681;BME280;26327;42.550;23.120;2023-03-23T19:17:49;92866.41;;;7.35;91.32
39681;BME280;26327;42.550;23.120;2023-03-23T19:20:23;92851.66;;;6.94;93.61
39681;BME280;26327;42.550;23.120;2023-03-23T19:22:48;92793.06;;;6.37;94.15
39681;BME280;26327;42.550;23.120;2023-03-23T19:25:14;92799.34;;;6.34;95.69
39681;BME280;26327;42.550;23.120;2023-03-23T19:27:40;92791.47;;;6.44;96.00
39681;BME280;26327;42.550;23.120;2023-03-23T19:30:07;92884.19;;;7.95;89.94
39681;BME280;26327;42.550;23.120;2023-03-23T19:32:34;92806.91;;;7.92;85.35
39681;BME280;26327;42.550;23.120;2023-03-23T19:34:59;92775.63;;;7.38;87.53
39681;BME280;26327;42.550;23.120;2023-03-23T19:37:25;92813.75;;;7.68;87.36
39681;BME280;26327;42.550;23.120;2023-03-23T19:39:51;92888.31;;;8.52;83.33
39681;BME280;26327;42.550;23.120;2023-03-23T19:42:16;92894.78;;;8.48;82.57
39681;BME280;26327;42.550;23.120;2023-03-23T19:44:44;92892.53;;;8.54;80.63
39681;BME280;26327;42.550;23.120;2023-03-23T19:47:10;92903.75;;;8.77;80.03
39681;BME280;26327;42.550;23.120;2023-03-23T19:49:36;92824.22;;;7.50;83.44
39681;BME280;26327;42.550;23.120;2023-03-23T19:52:03;92909.06;;;7.47;88.62
39681;BME280;26327;42.550;23.120;2023-03-23T19:54:29;92908.78;;;8.07;84.86
39681;BME280;26327;42.550;23.120;2023-03-23T19:56:55;92903.22;;;8.26;81.50
39681;BME280;26327;42.550;23.120;2023-03-23T19:59:21;92911.31;;;8.39;80.41
39681;BME280;26327;42.550;23.120;2023-03-23T20:01:46;92896.09;;;8.44;79.70
39681;BME280;26327;42.550;23.120;2023-03-23T20:04:12;92818.72;;;7.86;79.34
39681;BME280;26327;42.550;23.120;2023-03-23T20:06:38;92827.44;;;7.93;78.85
39681;BME280;26327;42.550;23.120;2023-03-23T20:09:04;92921.81;;;8.54;78.41
39681;BME280;26327;42.550;23.120;2023-03-23T20:11:31;92920.41;;;7.95;83.24
39681;BME280;26327;42.550;23.120;2023-03-23T20:13:56;92927.81;;;8.30;79.72
39681;BME280;26327;42.550;23.120;2023-03-23T20:16:22;92897.75;;;8.13;80.12
39681;BME280;26327;42.550;23.120;2023-03-23T20:18:48;92878.03;;;7.39;80.94
39681;BME280;26327;42.550;23.120;2023-03-23T20:21:15;92940.28;;;6.61;90.69
39681;BME280;26327;42.550;23.120;2023-03-23T20:23:42;92872.38;;;5.57;97.62
39681;BME280;26327;42.550;23.120;2023-03-23T20:26:16;92864.00;;;5.55;100.00
39681;BME280;26327;42.550;23.120;2023-03-23T20:28:42;92909.56;;;5.72;100.00
39681;BME280;26327;42.550;23.120;2023-03-23T20:31:21;92930.19;;;5.90;100.00
39681;BME280;26327;42.550;23.120;2023-03-23T20:33:47;92938.19;;;5.87;100.00
39681;BME280;26327;42.550;23.120;2023-03-23T20:36:13;92849.94;;;5.49;100.00
39681;BME280;26327;42.550;23.120;2023-03-23T20:38:39;92769.28;;;4.87;100.00
39681;BME280;26327;42.550;23.120;2023-03-23T20:41:09;92914.31;;;5.85;100.00
39681;BME280;26327;42.550;23.120;2023-03-23T20:43:40;92833.38;;;5.52;100.00
39681;BME280;26327;42.550;23.120;2023-03-23T20:46:07;92930.78;;;6.10;100.00
39681;BME280;26327;42.550;23.120;2023-03-23T20:48:34;92910.50;;;5.89;100.00
39681;BME280;26327;42.550;23.120;2023-03-23T20:51:02;92871.25;;;5.59;100.00
39681;BME280;26327;42.550;23.120;2023-03-23T20:53:30;92925.03;;;5.90;100.00
39681;BME280;26327;42.550;23.120;2023-03-23T20:55:57;92937.13;;;5.72;100.00
39681;BME280;26327;42.550;23.120;2023-03-23T20:58:24;92833.19;;;4.74;100.00
39681;BME280;26327;42.550;23.120;2023-03-23T21:00:52;92839.44;;;5.07;100.00
39681;BME280;26327;42.550;23.120;2023-03-23T21:03:29;92905.22;;;5.55;100.00
39681;BME280;26327;42.550;23.120;2023-03-23T21:05:56;92903.00;;;5.60;100.00
39681;BME280;26327;42.550;23.120;2023-03-23T21:08:21;92830.09;;;5.06;100.00
39681;BME280;26327;42.550;23.120;2023-03-23T21:10:48;92834.22;;;5.17;100.00
39681;BME280;26327;42.550;23.120;2023-03-23T21:13:14;92924.59;;;5.59;100.00
39681;BME280;26327;42.550;23.120;2023-03-23T21:15:40;92930.03;;;5.74;100.00
39681;BME280;26327;42.550;23.120;2023-03-23T21:18:06;92866.69;;;5.27;100.00
39681;BME280;26327;42.550;23.120;2023-03-23T21:20:32;92835.25;;;5.24;100.00
39681;BME280;26327;42.550;23.120;2023-03-23T21:23:00;92930.38;;;6.48;100.00
39681;BME280;26327;42.550;23.120;2023-03-23T21:25:26;92916.41;;;5.63;100.00
39681;BME280;26327;42.550;23.120;2023-03-23T21:27:52;92919.78;;;5.82;100.00
39681;BME280;26327;42.550;23.120;2023-03-23T21:30:19;92909.13;;;6.54;99.38
39681;BME280;26327;42.550;23.120;2023-03-23T21:32:44;92927.81;;;6.48;97.62
39681;BME280;26327;42.550;23.120;2023-03-23T21:35:10;92907.06;;;5.45;100.00
39681;BME280;26327;42.550;23.120;2023-03-23T21:37:36;92851.06;;;5.11;100.00
39681;BME280;26327;42.550;23.120;2023-03-23T21:40:03;92868.56;;;5.07;100.00
39681;BME280;26327;42.550;23.120;2023-03-23T21:42:30;92849.22;;;5.03;100.00
39681;BME280;26327;42.550;23.120;2023-03-23T21:44:56;92909.94;;;5.59;100.00
39681;BME280;26327;42.550;23.120;2023-03-23T21:47:26;92919.66;;;5.48;100.00
39681;BME280;26327;42.550;23.120;2023-03-23T21:49:55;92873.28;;;5.12;100.00
39681;BME280;26327;42.550;23.120;2023-03-23T21:52:22;92924.81;;;5.30;100.00
39681;BME280;26327;42.550;23.120;2023-03-23T21:54:47;92888.06;;;5.10;100.00
39681;BME280;26327;42.550;23.120;2023-03-23T21:57:13;92840.78;;;4.76;100.00
39681;BME280;26327;42.550;23.120;2023-03-23T21:59:39;92918.88;;;5.29;100.00
39681;BME280;26327;42.550;23.120;2023-03-23T22:02:04;92903.22;;;5.13;100.00
39681;BME280;26327;42.550;23.120;2023-03-23T22:04:31;92825.25;;;4.85;100.00
39681;BME280;26327;42.550;23.120;2023-03-23T22:06:56;92907.88;;;5.45;100.00
39681;BME280;26327;42.550;23.120;2023-03-23T22:09:22;92808.53;;;5.07;100.00
39681;BME280;26327;42.550;23.120;2023-03-23T22:11:47;92849.22;;;5.03;100.00
39681;BME280;26327;42.550;23.120;2023-03-23T22:14:13;92902.50;;;5.38;100.00
39681;BME280;26327;42.550;23.120;2023-03-23T22:16:38;92933.06;;;6.13;100.00
39681;BME280;26327;42.550;23.120;2023-03-23T22:19:04;92921.84;;;6.48;99.50
39681;BME280;26327;42.550;23.120;2023-03-23T22:21:30;92852.06;;;5.97;98.62
39681;BME280;26327;42.550;23.120;2023-03-23T22:23:58;92917.69;;;5.42;100.00
39681;BME280;26327;42.550;23.120;2023-03-23T22:26:25;92836.22;;;5.05;100.00
39681;BME280;26327;42.550;23.120;2023-03-23T22:28:52;92914.16;;;6.30;100.00
39681;BME280;26327;42.550;23.120;2023-03-23T22:31:20;92881.50;;;6.47;97.43
39681;BME280;26327;42.550;23.120;2023-03-23T22:33:48;92926.75;;;6.33;97.30
39681;BME280;26327;42.550;23.120;2023-03-23T22:36:15;92887.41;;;5.08;100.00